sensor_id;sensor_type;location;lat;lon;timestamp;P1;durP1;ratioP1;P2;durP2;ratioP2
80539;SDS011;69869;48.036;15.780;2024-02-15T00:00:47;2.38;;;1.50;;
80539;SDS011;69869;48.036;15.780;2024-02-15T00:03:13;1.73;;;1.50;;
80539;SDS011;69869;48.036;15.780;2024-02-15T00:05:39;2.05;;;1.40;;
80539;SDS011;69869;48.036;15.780;2024-02-15T00:08:05;1.40;;;1.30;;
80539;SDS011;69869;48.036;15.780;2024-02-15T00:10:31;1.50;;;1.40;;
80539;SDS011;69869;48.036;15.780;2024-02-15T00:12:57;1.90;;;1.50;;
80539;SDS011;69869;48.036;15.780;2024-02-15T00:15:23;2.22;;;1.50;;
80539;SDS011;69869;48.036;15.780;2024-02-15T00:17:49;1.67;;;1.48;;
80539;SDS011;69869;48.036;15.780;2024-02-15T00:20:16;1.60;;;1.50;;
80539;SDS011;69869;48.036;15.780;2024-02-15T00:22:43;1.70;;;1.55;;
80539;SDS011;69869;48.036;15.780;2024-02-15T00:25:09;1.83;;;1.60;;
80539;SDS011;69869;48.036;15.780;2024-02-15T00:27:36;1.58;;;1.48;;
80539;SDS011;69869;48.036;15.780;2024-02-15T00:30:02;2.05;;;1.40;;
80539;SDS011;69869;48.036;15.780;2024-02-15T00:32:32;1.60;;;1.50;;
80539;SDS011;69869;48.036;15.780;2024-02-15T00:35:01;2.40;;;1.52;;
80539;SDS011;69869;48.036;15.780;2024-02-15T00:37:27;1.98;;;1.80;;
80539;SDS011;69869;48.036;15.780;2024-02-15T00:39:53;1.58;;;1.48;;
80539;SDS011;69869;48.036;15.780;2024-02-15T00:42:19;2.15;;;1.48;;
80539;SDS011;69869;48.036;15.780;2024-02-15T00:44:44;2.15;;;1.50;;
80539;SDS011;69869;48.036;15.780;2024-02-15T00:47:10;3.33;;;1.80;;
80539;SDS011;69869;48.036;15.780;2024-02-15T00:49:37;1.50;;;1.40;;
80539;SDS011;69869;48.036;15.780;2024-02-15T00:52:03;1.48;;;1.38;;
80539;SDS011;69869;48.036;15.780;2024-02-15T00:54:28;1.40;;;1.30;;
80539;SDS011;69869;48.036;15.780;2024-02-15T00:56:54;1.45;;;1.35;;
80539;SDS011;69869;48.036;15.780;2024-02-15T00:59:20;1.88;;;1.40;;
80539;SDS011;69869;48.036;15.780;2024-02-15T01:01:45;1.50;;;1.40;;
80539;SDS011;69869;48.036;15.780;2024-02-15T01:04:12;1.42;;;1.30;;
80539;SDS011;69869;48.036;15.780;2024-02-15T01:06:38;1.58;;;1.48;;
80539;SDS011;69869;48.036;15.780;2024-02-15T01:09:04;1.40;;;1.30;;
80539;SDS011;69869;48.036;15.780;2024-02-15T01:11:30;1.65;;;1.40;;
80539;SDS011;69869;48.036;15.780;2024-02-15T01:14:00;1.50;;;1.40;;
80539;SDS011;69869;48.036;15.780;2024-02-15T01:16:25;1.60;;;1.50;;
80539;SDS011;69869;48.036;15.780;2024-02-15T01:18:51;1.63;;;1.50;;
80539;SDS011;69869;48.036;15.780;2024-02-15T01:21:16;1.88;;;1.40;;
80539;SDS011;69869;48.036;15.780;2024-02-15T01:23:42;1.50;;;1.40;;
80539;SDS011;69869;48.036;15.780;2024-02-15T01:26:09;1.50;;;1.40;;
80539;SDS011;69869;48.036;15.780;2024-02-15T01:28:36;1.70;;;1.60;;
80539;SDS011;69869;48.036;15.780;2024-02-15T01:31:02;1.58;;;1.48;;
80539;SDS011;69869;48.036;15.780;2024-02-15T01:33:27;1.50;;;1.40;;
80539;SDS011;69869;48.036;15.780;2024-02-15T01:35:53;2.67;;;1.60;;
80539;SDS011;69869;48.036;15.780;2024-02-15T01:38:19;1.25;;;1.15;;
80539;SDS011;69869;48.036;15.780;2024-02-15T01:40:46;1.60;;;1.50;;
80539;SDS011;69869;48.036;15.780;2024-02-15T01:43:12;1.70;;;1.60;;
80539;SDS011;69869;48.036;15.780;2024-02-15T01:45:38;1.50;;;1.40;;
80539;SDS011;69869;48.036;15.780;2024-02-15T01:48:04;1.50;;;1.40;;
80539;SDS011;69869;48.036;15.780;2024-02-15T01:50:30;1.95;;;1.60;;
80539;SDS011;69869;48.036;15.780;2024-02-15T01:52:59;1.38;;;1.27;;
80539;SDS011;69869;48.036;15.780;2024-02-15T01:55:26;1.65;;;1.55;;
80539;SDS011;69869;48.036;15.780;2024-02-15T01:57:52;1.40;;;1.30;;
80539;SDS011;69869;48.036;15.780;2024-02-15T02:00:18;1.48;;;1.38;;
80539;SDS011;69869;48.036;15.780;2024-02-15T02:02:44;1.60;;;1.50;;
80539;SDS011;69869;48.036;15.780;2024-02-15T02:05:11;1.60;;;1.50;;
80539;SDS011;69869;48.036;15.780;2024-02-15T02:07:37;1.67;;;1.58;;
80539;SDS011;69869;48.036;15.780;2024-02-15T02:10:03;1.55;;;1.45;;
80539;SDS011;69869;48.036;15.780;2024-02-15T02:12:29;1.95;;;1.60;;
80539;SDS011;69869;48.036;15.780;2024-02-15T02:14:56;1.40;;;1.30;;
80539;SDS011;69869;48.036;15.780;2024-02-15T02:17:22;1.40;;;1.30;;
80539;SDS011;69869;48.036;15.780;2024-02-15T02:19:47;2.00;;;1.30;;
80539;SDS011;69869;48.036;15.780;2024-02-15T02:22:15;2.10;;;1.60;;
80539;SDS011;69869;48.036;15.780;2024-02-15T02:27:28;1.55;;;1.45;;
80539;SDS011;69869;48.036;15.780;2024-02-15T02:29:54;2.50;;;1.42;;
80539;SDS011;69869;48.036;15.780;2024-02-15T02:32:20;1.40;;;1.30;;
80539;SDS011;69869;48.036;15.780;2024-02-15T02:34:46;1.50;;;1.40;;
80539;SDS011;69869;48.036;15.780;2024-02-15T02:37:12;1.92;;;1.30;;
80539;SDS011;69869;48.036;15.780;2024-02-15T02:39:39;1.38;;;1.27;;
80539;SDS011;69869;48.036;15.780;2024-02-15T02:42:04;1.75;;;1.50;;
80539;SDS011;69869;48.036;15.780;2024-02-15T02:44:30;1.40;;;1.30;;
80539;SDS011;69869;48.036;15.780;2024-02-15T02:46:57;1.45;;;1.35;;
80539;SDS011;69869;48.036;15.780;2024-02-15T02:49:22;1.23;;;1.13;;
80539;SDS011;69869;48.036;15.780;2024-02-15T02:51:48;1.63;;;1.40;;
80539;SDS011;69869;48.036;15.780;2024-02-15T02:54:14;2.35;;;1.45;;
80539;SDS011;69869;48.036;15.780;2024-02-15T02:56:40;1.48;;;1.20;;
80539;SDS011;69869;48.036;15.780;2024-02-15T02:59:08;1.73;;;1.58;;
80539;SDS011;69869;48.036;15.780;2024-02-15T03:01:34;1.52;;;1.38;;
80539;SDS011;69869;48.036;15.780;2024-02-15T03:04:00;1.30;;;1.20;;
80539;SDS011;69869;48.036;15.780;2024-02-15T03:06:26;1.30;;;1.20;;
80539;SDS011;69869;48.036;15.780;2024-02-15T03:08:52;1.30;;;1.20;;
80539;SDS011;69869;48.036;15.780;2024-02-15T03:11:21;1.55;;;1.45;;
80539;SDS011;69869;48.036;15.780;2024-02-15T03:13:47;1.48;;;1.30;;
80539;SDS011;69869;48.036;15.780;2024-02-15T03:16:13;1.17;;;1.10;;
80539;SDS011;69869;48.036;15.780;2024-02-15T03:18:41;1.80;;;1.20;;
80539;SDS011;69869;48.036;15.780;2024-02-15T03:21:08;1.38;;;1.27;;
80539;SDS011;69869;48.036;15.780;2024-02-15T03:23:36;2.03;;;1.20;;
80539;SDS011;69869;48.036;15.780;2024-02-15T03:26:07;1.65;;;1.35;;
80539;SDS011;69869;48.036;15.780;2024-02-15T03:28:34;3.78;;;1.45;;
80539;SDS011;69869;48.036;15.780;2024-02-15T03:31:01;1.38;;;1.20;;
80539;SDS011;69869;48.036;15.780;2024-02-15T03:33:27;1.30;;;1.20;;
80539;SDS011;69869;48.036;15.780;2024-02-15T03:35:58;1.57;;;1.20;;
80539;SDS011;69869;48.036;15.780;2024-02-15T03:38:25;1.15;;;1.08;;
80539;SDS011;69869;48.036;15.780;2024-02-15T03:40:52;1.40;;;1.30;;
80539;SDS011;69869;48.036;15.780;2024-02-15T03:43:18;1.17;;;1.08;;
80539;SDS011;69869;48.036;15.780;2024-02-15T03:45:44;1.30;;;1.20;;
80539;SDS011;69869;48.036;15.780;2024-02-15T03:48:10;2.20;;;1.20;;
80539;SDS011;69869;48.036;15.780;2024-02-15T03:50:35;1.30;;;1.20;;
80539;SDS011;69869;48.036;15.780;2024-02-15T03:53:01;1.00;;;1.00;;
80539;SDS011;69869;48.036;15.780;2024-02-15T03:55:26;1.38;;;1.10;;
80539;SDS011;69869;48.036;15.780;2024-02-15T03:57:52;1.17;;;1.08;;
80539;SDS011;69869;48.036;15.780;2024-02-15T04:00:20;1.25;;;1.15;;
80539;SDS011;69869;48.036;15.780;2024-02-15T04:02:46;1.13;;;1.08;;
80539;SDS011;69869;48.036;15.780;2024-02-15T04:05:15;1.38;;;1.27;;
80539;SDS011;69869;48.036;15.780;2024-02-15T04:07:43;1.10;;;1.10;;
80539;SDS011;69869;48.036;15.780;2024-02-15T04:10:09;1.10;;;1.10;;
80539;SDS011;69869;48.036;15.780;2024-02-15T04:12:35;1.20;;;1.10;;
80539;SDS011;69869;48.036;15.780;2024-02-15T04:15:01;1.27;;;1.17;;
80539;SDS011;69869;48.036;15.780;2024-02-15T04:17:36;1.30;;;1.20;;
80539;SDS011;69869;48.036;15.780;2024-02-15T04:20:03;1.15;;;1.10;;
80539;SDS011;69869;48.036;15.780;2024-02-15T04:22:31;1.10;;;1.10;;
80539;SDS011;69869;48.036;15.780;2024-02-15T04:25:02;1.20;;;1.10;;
80539;SDS011;69869;48.036;15.780;2024-02-15T04:27:31;1.00;;;1.00;;
80539;SDS011;69869;48.036;15.780;2024-02-15T04:29:57;1.02;;;1.00;;
80539;SDS011;69869;48.036;15.780;2024-02-15T04:32:23;1.40;;;1.30;;
80539;SDS011;69869;48.036;15.780;2024-02-15T04:34:49;1.20;;;1.15;;
80539;SDS011;69869;48.036;15.780;2024-02-15T04:37:14;1.13;;;1.02;;
80539;SDS011;69869;48.036;15.780;2024-02-15T04:39:41;1.40;;;1.30;;
80539;SDS011;69869;48.036;15.780;2024-02-15T04:42:07;1.50;;;1.13;;
80539;SDS011;69869;48.036;15.780;2024-02-15T04:44:37;1.20;;;1.10;;
80539;SDS011;69869;48.036;15.780;2024-02-15T04:47:05;1.00;;;1.00;;
80539;SDS011;69869;48.036;15.780;2024-02-15T04:49:34;1.60;;;1.50;;
80539;SDS011;69869;48.036;15.780;2024-02-15T04:52:03;12.68;;;2.25;;
80539;SDS011;69869;48.036;15.780;2024-02-15T04:54:30;4.38;;;1.35;;
80539;SDS011;69869;48.036;15.780;2024-02-15T04:56:57;1.98;;;1.10;;
80539;SDS011;69869;48.036;15.780;2024-02-15T04:59:23;4.38;;;1.45;;
80539;SDS011;69869;48.036;15.780;2024-02-15T05:01:54;3.05;;;1.10;;
80539;SDS011;69869;48.036;15.780;2024-02-15T05:04:21;2.80;;;1.10;;
80539;SDS011;69869;48.036;15.780;2024-02-15T05:06:49;39.53;;;5.32;;
80539;SDS011;69869;48.036;15.780;2024-02-15T05:09:15;13.95;;;2.30;;
80539;SDS011;69869;48.036;15.780;2024-02-15T05:11:45;5.95;;;1.58;;
80539;SDS011;69869;48.036;15.780;2024-02-15T05:14:12;5.55;;;2.00;;
80539;SDS011;69869;48.036;15.780;2024-02-15T05:16:44;6.93;;;2.05;;
80539;SDS011;69869;48.036;15.780;2024-02-15T05:19:16;4.72;;;2.00;;
80539;SDS011;69869;48.036;15.780;2024-02-15T05:21:43;9.43;;;1.92;;
80539;SDS011;69869;48.036;15.780;2024-02-15T05:24:12;5.28;;;1.73;;
80539;SDS011;69869;48.036;15.780;2024-02-15T05:26:39;6.97;;;1.90;;
80539;SDS011;69869;48.036;15.780;2024-02-15T05:29:08;5.63;;;1.80;;
80539;SDS011;69869;48.036;15.780;2024-02-15T05:31:36;7.55;;;2.30;;
80539;SDS011;69869;48.036;15.780;2024-02-15T05:34:03;4.95;;;1.85;;
80539;SDS011;69869;48.036;15.780;2024-02-15T05:36:32;10.68;;;1.80;;
80539;SDS011;69869;48.036;15.780;2024-02-15T05:38:59;6.03;;;1.83;;
80539;SDS011;69869;48.036;15.780;2024-02-15T05:41:25;4.13;;;1.80;;
80539;SDS011;69869;48.036;15.780;2024-02-15T05:43:51;4.13;;;1.95;;
80539;SDS011;69869;48.036;15.780;2024-02-15T05:46:19;5.80;;;1.88;;
80539;SDS011;69869;48.036;15.780;2024-02-15T05:48:48;3.67;;;1.70;;
80539;SDS011;69869;48.036;15.780;2024-02-15T05:51:14;6.25;;;2.08;;
80539;SDS011;69869;48.036;15.780;2024-02-15T05:53:40;4.47;;;1.80;;
80539;SDS011;69869;48.036;15.780;2024-02-15T05:56:06;4.65;;;2.10;;
80539;SDS011;69869;48.036;15.780;2024-02-15T05:58:37;3.10;;;1.80;;
80539;SDS011;69869;48.036;15.780;2024-02-15T06:01:04;5.38;;;1.63;;
80539;SDS011;69869;48.036;15.780;2024-02-15T06:03:31;7.85;;;1.80;;
80539;SDS011;69869;48.036;15.780;2024-02-15T06:05:59;4.63;;;1.83;;
80539;SDS011;69869;48.036;15.780;2024-02-15T06:08:27;4.60;;;1.63;;
80539;SDS011;69869;48.036;15.780;2024-02-15T06:10:54;3.63;;;1.73;;
80539;SDS011;69869;48.036;15.780;2024-02-15T06:13:21;5.05;;;1.48;;
80539;SDS011;69869;48.036;15.780;2024-02-15T06:15:47;6.63;;;1.77;;
80539;SDS011;69869;48.036;15.780;2024-02-15T06:18:21;4.40;;;1.70;;
80539;SDS011;69869;48.036;15.780;2024-02-15T06:20:49;3.78;;;1.63;;
80539;SDS011;69869;48.036;15.780;2024-02-15T06:23:18;3.83;;;1.50;;
80539;SDS011;69869;48.036;15.780;2024-02-15T06:25:44;2.78;;;1.65;;
80539;SDS011;69869;48.036;15.780;2024-02-15T06:28:12;2.55;;;1.50;;
80539;SDS011;69869;48.036;15.780;2024-02-15T06:30:44;2.72;;;1.45;;
80539;SDS011;69869;48.036;15.780;2024-02-15T06:33:29;3.20;;;1.55;;
80539;SDS011;69869;48.036;15.780;2024-02-15T06:36:14;2.47;;;1.50;;
80539;SDS011;69869;48.036;15.780;2024-02-15T06:38:58;3.72;;;1.40;;
80539;SDS011;69869;48.036;15.780;2024-02-15T06:41:42;3.20;;;1.60;;
80539;SDS011;69869;48.036;15.780;2024-02-15T06:44:08;2.20;;;1.35;;
80539;SDS011;69869;48.036;15.780;2024-02-15T06:46:34;3.50;;;1.58;;
80539;SDS011;69869;48.036;15.780;2024-02-15T06:49:00;2.60;;;1.48;;
80539;SDS011;69869;48.036;15.780;2024-02-15T06:51:26;3.30;;;1.50;;
80539;SDS011;69869;48.036;15.780;2024-02-15T06:53:51;1.67;;;1.33;;
80539;SDS011;69869;48.036;15.780;2024-02-15T06:56:20;4.38;;;1.40;;
80539;SDS011;69869;48.036;15.780;2024-02-15T06:58:46;3.45;;;1.33;;
80539;SDS011;69869;48.036;15.780;2024-02-15T07:01:13;3.67;;;1.60;;
80539;SDS011;69869;48.036;15.780;2024-02-15T07:03:41;3.55;;;1.40;;
80539;SDS011;69869;48.036;15.780;2024-02-15T07:06:10;2.35;;;1.55;;
80539;SDS011;69869;48.036;15.780;2024-02-15T07:08:38;3.15;;;1.55;;
80539;SDS011;69869;48.036;15.780;2024-02-15T07:11:06;2.55;;;1.83;;
80539;SDS011;69869;48.036;15.780;2024-02-15T07:13:34;4.15;;;1.52;;
80539;SDS011;69869;48.036;15.780;2024-02-15T07:16:01;4.28;;;1.77;;
80539;SDS011;69869;48.036;15.780;2024-02-15T07:18:26;3.88;;;1.65;;
80539;SDS011;69869;48.036;15.780;2024-02-15T07:20:52;2.67;;;1.55;;
80539;SDS011;69869;48.036;15.780;2024-02-15T07:23:18;2.40;;;1.50;;
80539;SDS011;69869;48.036;15.780;2024-02-15T07:25:43;3.63;;;1.80;;
80539;SDS011;69869;48.036;15.780;2024-02-15T07:28:13;3.83;;;1.50;;
80539;SDS011;69869;48.036;15.780;2024-02-15T07:30:39;2.60;;;1.50;;
80539;SDS011;69869;48.036;15.780;2024-02-15T07:33:04;2.05;;;1.33;;
80539;SDS011;69869;48.036;15.780;2024-02-15T07:35:31;2.30;;;1.40;;
80539;SDS011;69869;48.036;15.780;2024-02-15T07:37:58;2.85;;;1.50;;
80539;SDS011;69869;48.036;15.780;2024-02-15T07:40:26;1.88;;;1.50;;
80539;SDS011;69869;48.036;15.780;2024-02-15T07:42:56;1.83;;;1.30;;
80539;SDS011;69869;48.036;15.780;2024-02-15T07:45:22;1.83;;;1.50;;
80539;SDS011;69869;48.036;15.780;2024-02-15T07:47:48;3.58;;;1.50;;
80539;SDS011;69869;48.036;15.780;2024-02-15T07:50:17;2.25;;;1.60;;
80539;SDS011;69869;48.036;15.780;2024-02-15T07:52:47;2.53;;;1.45;;
80539;SDS011;69869;48.036;15.780;2024-02-15T07:55:13;3.03;;;1.50;;
80539;SDS011;69869;48.036;15.780;2024-02-15T07:57:39;2.25;;;1.60;;
80539;SDS011;69869;48.036;15.780;2024-02-15T08:00:05;1.65;;;1.50;;
80539;SDS011;69869;48.036;15.780;2024-02-15T08:02:37;2.03;;;1.50;;
80539;SDS011;69869;48.036;15.780;2024-02-15T08:05:05;2.72;;;1.48;;
80539;SDS011;69869;48.036;15.780;2024-02-15T08:07:35;3.88;;;1.60;;
80539;SDS011;69869;48.036;15.780;2024-02-15T08:10:02;1.88;;;1.67;;
80539;SDS011;69869;48.036;15.780;2024-02-15T08:12:28;1.80;;;1.40;;
80539;SDS011;69869;48.036;15.780;2024-02-15T08:14:55;2.45;;;1.60;;
80539;SDS011;69869;48.036;15.780;2024-02-15T08:17:21;2.60;;;1.70;;
80539;SDS011;69869;48.036;15.780;2024-02-15T08:19:46;3.35;;;1.50;;
80539;SDS011;69869;48.036;15.780;2024-02-15T08:22:12;3.08;;;1.35;;
80539;SDS011;69869;48.036;15.780;2024-02-15T08:24:37;2.25;;;1.40;;
80539;SDS011;69869;48.036;15.780;2024-02-15T08:27:03;3.00;;;1.85;;
80539;SDS011;69869;48.036;15.780;2024-02-15T08:29:29;2.03;;;1.50;;
80539;SDS011;69869;48.036;15.780;2024-02-15T08:31:56;1.45;;;1.30;;
80539;SDS011;69869;48.036;15.780;2024-02-15T08:34:21;1.85;;;1.55;;
80539;SDS011;69869;48.036;15.780;2024-02-15T08:36:47;2.40;;;1.60;;
80539;SDS011;69869;48.036;15.780;2024-02-15T08:39:13;3.38;;;1.60;;
80539;SDS011;69869;48.036;15.780;2024-02-15T08:41:41;3.20;;;1.83;;
80539;SDS011;69869;48.036;15.780;2024-02-15T08:44:07;1.52;;;1.40;;
80539;SDS011;69869;48.036;15.780;2024-02-15T08:46:34;2.08;;;1.60;;
80539;SDS011;69869;48.036;15.780;2024-02-15T08:49:01;1.85;;;1.40;;
80539;SDS011;69869;48.036;15.780;2024-02-15T08:51:28;4.10;;;1.50;;
80539;SDS011;69869;48.036;15.780;2024-02-15T08:53:55;2.25;;;1.35;;
80539;SDS011;69869;48.036;15.780;2024-02-15T08:56:21;1.50;;;1.40;;
80539;SDS011;69869;48.036;15.780;2024-02-15T08:58:48;1.45;;;1.30;;
80539;SDS011;69869;48.036;15.780;2024-02-15T09:01:14;1.52;;;1.35;;
80539;SDS011;69869;48.036;15.780;2024-02-15T09:03:40;1.25;;;1.15;;
80539;SDS011;69869;48.036;15.780;2024-02-15T09:06:05;1.30;;;1.20;;
80539;SDS011;69869;48.036;15.780;2024-02-15T09:08:32;1.63;;;1.25;;
80539;SDS011;69869;48.036;15.780;2024-02-15T09:10:58;1.23;;;1.10;;
80539;SDS011;69869;48.036;15.780;2024-02-15T09:13:24;2.35;;;1.20;;
80539;SDS011;69869;48.036;15.780;2024-02-15T09:15:50;1.30;;;1.20;;
80539;SDS011;69869;48.036;15.780;2024-02-15T09:18:16;1.30;;;1.20;;
80539;SDS011;69869;48.036;15.780;2024-02-15T09:20:47;1.17;;;1.08;;
80539;SDS011;69869;48.036;15.780;2024-02-15T09:23:19;1.27;;;1.17;;
80539;SDS011;69869;48.036;15.780;2024-02-15T09:25:45;1.13;;;1.02;;
80539;SDS011;69869;48.036;15.780;2024-02-15T09:28:10;1.30;;;1.20;;
80539;SDS011;69869;48.036;15.780;2024-02-15T09:30:36;2.20;;;1.08;;
80539;SDS011;69869;48.036;15.780;2024-02-15T09:33:03;1.33;;;1.13;;
80539;SDS011;69869;48.036;15.780;2024-02-15T09:35:30;1.10;;;1.00;;
80539;SDS011;69869;48.036;15.780;2024-02-15T09:37:56;1.48;;;1.38;;
80539;SDS011;69869;48.036;15.780;2024-02-15T09:40:22;1.63;;;1.20;;
80539;SDS011;69869;48.036;15.780;2024-02-15T09:42:54;1.33;;;1.20;;
80539;SDS011;69869;48.036;15.780;2024-02-15T09:45:20;2.08;;;1.23;;
80539;SDS011;69869;48.036;15.780;2024-02-15T09:47:46;1.30;;;1.13;;
80539;SDS011;69869;48.036;15.780;2024-02-15T09:50:15;3.90;;;1.25;;
80539;SDS011;69869;48.036;15.780;2024-02-15T09:52:45;1.38;;;1.27;;
80539;SDS011;69869;48.036;15.780;2024-02-15T09:55:12;1.27;;;1.17;;
80539;SDS011;69869;48.036;15.780;2024-02-15T09:57:43;1.23;;;1.20;;
80539;SDS011;69869;48.036;15.780;2024-02-15T10:00:13;1.00;;;1.00;;
80539;SDS011;69869;48.036;15.780;2024-02-15T10:02:40;1.10;;;1.05;;
80539;SDS011;69869;48.036;15.780;2024-02-15T10:05:09;1.10;;;1.00;;
80539;SDS011;69869;48.036;15.780;2024-02-15T10:07:39;1.65;;;1.30;;
80539;SDS011;69869;48.036;15.780;2024-02-15T10:10:18;1.20;;;1.10;;
80539;SDS011;69869;48.036;15.780;2024-02-15T10:12:54;1.77;;;1.00;;
80539;SDS011;69869;48.036;15.780;2024-02-15T10:17:56;1.83;;;1.30;;
80539;SDS011;69869;48.036;15.780;2024-02-15T10:20:23;0.90;;;0.90;;
80539;SDS011;69869;48.036;15.780;2024-02-15T10:23:08;1.00;;;0.90;;
80539;SDS011;69869;48.036;15.780;2024-02-15T10:25:39;1.08;;;0.95;;
80539;SDS011;69869;48.036;15.780;2024-02-15T10:28:09;1.77;;;1.13;;
80539;SDS011;69869;48.036;15.780;2024-02-15T10:30:43;1.55;;;1.02;;
80539;SDS011;69869;48.036;15.780;2024-02-15T10:33:17;0.95;;;0.90;;
80539;SDS011;69869;48.036;15.780;2024-02-15T10:35:47;1.38;;;1.10;;
80539;SDS011;69869;48.036;15.780;2024-02-15T10:38:12;1.20;;;1.00;;
80539;SDS011;69869;48.036;15.780;2024-02-15T10:40:39;1.08;;;1.00;;
80539;SDS011;69869;48.036;15.780;2024-02-15T10:43:09;1.37;;;1.00;;
80539;SDS011;69869;48.036;15.780;2024-02-15T10:45:38;0.88;;;0.88;;
80539;SDS011;69869;48.036;15.780;2024-02-15T10:48:07;1.23;;;1.00;;
80539;SDS011;69869;48.036;15.780;2024-02-15T10:50:33;1.10;;;0.98;;
80539;SDS011;69869;48.036;15.780;2024-02-15T10:52:59;1.10;;;0.98;;
80539;SDS011;69869;48.036;15.780;2024-02-15T10:56:17;0.88;;;0.88;;
80539;SDS011;69869;48.036;15.780;2024-02-15T10:58:25;0.93;;;0.88;;
80539;SDS011;69869;48.036;15.780;2024-02-15T11:00:55;0.80;;;0.80;;
80539;SDS011;69869;48.036;15.780;2024-02-15T11:03:29;0.90;;;0.90;;
80539;SDS011;69869;48.036;15.780;2024-02-15T11:06:00;1.25;;;0.98;;
80539;SDS011;69869;48.036;15.780;2024-02-15T11:08:31;0.80;;;0.80;;
80539;SDS011;69869;48.036;15.780;2024-02-15T11:10:57;0.98;;;0.98;;
80539;SDS011;69869;48.036;15.780;2024-02-15T11:13:24;0.90;;;0.90;;
80539;SDS011;69869;48.036;15.780;2024-02-15T11:15:50;1.00;;;0.90;;
80539;SDS011;69869;48.036;15.780;2024-02-15T11:21:14;1.25;;;1.13;;
80539;SDS011;69869;48.036;15.780;2024-02-15T11:23:40;0.70;;;0.70;;
80539;SDS011;69869;48.036;15.780;2024-02-15T11:26:13;0.73;;;0.73;;
80539;SDS011;69869;48.036;15.780;2024-02-15T11:30:14;1.27;;;1.17;;
80539;SDS011;69869;48.036;15.780;2024-02-15T11:35:29;0.90;;;0.90;;
80539;SDS011;69869;48.036;15.780;2024-02-15T11:37:56;0.80;;;0.80;;
80539;SDS011;69869;48.036;15.780;2024-02-15T11:40:29;0.80;;;0.80;;
80539;SDS011;69869;48.036;15.780;2024-02-15T11:44:02;1.10;;;0.80;;
80539;SDS011;69869;48.036;15.780;2024-02-15T11:46:16;1.70;;;0.90;;
80539;SDS011;69869;48.036;15.780;2024-02-15T11:48:43;0.93;;;0.93;;
80539;SDS011;69869;48.036;15.780;2024-02-15T11:54:08;1.05;;;0.90;;
80539;SDS011;69869;48.036;15.780;2024-02-15T11:59:09;1.08;;;0.90;;
80539;SDS011;69869;48.036;15.780;2024-02-15T12:01:43;0.80;;;0.80;;
80539;SDS011;69869;48.036;15.780;2024-02-15T12:04:28;0.90;;;0.90;;
80539;SDS011;69869;48.036;15.780;2024-02-15T12:07:14;1.50;;;1.00;;
80539;SDS011;69869;48.036;15.780;2024-02-15T12:09:59;0.88;;;0.88;;
80539;SDS011;69869;48.036;15.780;2024-02-15T12:12:53;0.93;;;0.93;;
80539;SDS011;69869;48.036;15.780;2024-02-15T12:15:37;0.95;;;0.95;;
80539;SDS011;69869;48.036;15.780;2024-02-15T12:18:22;0.82;;;0.82;;
80539;SDS011;69869;48.036;15.780;2024-02-15T12:21:06;0.80;;;0.80;;
80539;SDS011;69869;48.036;15.780;2024-02-15T12:23:34;0.98;;;0.90;;
80539;SDS011;69869;48.036;15.780;2024-02-15T12:26:02;0.70;;;0.70;;
80539;SDS011;69869;48.036;15.780;2024-02-15T12:28:29;1.52;;;0.90;;
80539;SDS011;69869;48.036;15.780;2024-02-15T12:30:55;0.80;;;0.80;;
80539;SDS011;69869;48.036;15.780;2024-02-15T12:33:23;1.05;;;1.05;;
80539;SDS011;69869;48.036;15.780;2024-02-15T12:35:49;2.72;;;1.23;;
80539;SDS011;69869;48.036;15.780;2024-02-15T12:38:16;0.93;;;0.93;;
80539;SDS011;69869;48.036;15.780;2024-02-15T12:40:42;0.82;;;0.80;;
80539;SDS011;69869;48.036;15.780;2024-02-15T12:43:09;0.90;;;0.90;;
80539;SDS011;69869;48.036;15.780;2024-02-15T12:45:36;1.13;;;0.80;;
80539;SDS011;69869;48.036;15.780;2024-02-15T12:48:06;3.35;;;0.85;;
80539;SDS011;69869;48.036;15.780;2024-02-15T12:50:33;0.70;;;0.70;;
80539;SDS011;69869;48.036;15.780;2024-02-15T12:52:59;0.80;;;0.80;;
80539;SDS011;69869;48.036;15.780;2024-02-15T12:55:30;0.70;;;0.70;;
80539;SDS011;69869;48.036;15.780;2024-02-15T12:58:01;0.88;;;0.82;;
80539;SDS011;69869;48.036;15.780;2024-02-15T13:00:29;1.75;;;0.80;;
80539;SDS011;69869;48.036;15.780;2024-02-15T13:03:04;0.93;;;0.93;;
80539;SDS011;69869;48.036;15.780;2024-02-15T13:05:34;0.80;;;0.80;;
80539;SDS011;69869;48.036;15.780;2024-02-15T13:08:01;2.15;;;0.90;;
80539;SDS011;69869;48.036;15.780;2024-02-15T13:10:27;1.75;;;0.80;;
80539;SDS011;69869;48.036;15.780;2024-02-15T13:12:54;3.60;;;0.93;;
80539;SDS011;69869;48.036;15.780;2024-02-15T13:15:20;3.50;;;0.90;;
80539;SDS011;69869;48.036;15.780;2024-02-15T13:17:47;1.58;;;0.80;;
80539;SDS011;69869;48.036;15.780;2024-02-15T13:20:16;2.08;;;0.90;;
80539;SDS011;69869;48.036;15.780;2024-02-15T13:22:45;1.58;;;0.90;;
80539;SDS011;69869;48.036;15.780;2024-02-15T13:25:13;1.83;;;0.90;;
80539;SDS011;69869;48.036;15.780;2024-02-15T13:27:41;3.13;;;0.80;;
80539;SDS011;69869;48.036;15.780;2024-02-15T13:30:08;2.30;;;0.80;;
80539;SDS011;69869;48.036;15.780;2024-02-15T13:32:37;0.70;;;0.70;;
80539;SDS011;69869;48.036;15.780;2024-02-15T13:35:10;1.23;;;0.82;;
80539;SDS011;69869;48.036;15.780;2024-02-15T13:37:42;0.80;;;0.80;;
80539;SDS011;69869;48.036;15.780;2024-02-15T13:40:11;1.27;;;0.70;;
80539;SDS011;69869;48.036;15.780;2024-02-15T13:42:46;0.93;;;0.93;;
80539;SDS011;69869;48.036;15.780;2024-02-15T13:45:23;2.13;;;0.80;;
80539;SDS011;69869;48.036;15.780;2024-02-15T13:47:55;1.77;;;0.73;;
80539;SDS011;69869;48.036;15.780;2024-02-15T13:50:21;1.02;;;0.90;;
80539;SDS011;69869;48.036;15.780;2024-02-15T13:52:48;1.42;;;0.75;;
80539;SDS011;69869;48.036;15.780;2024-02-15T13:55:15;0.95;;;0.80;;
80539;SDS011;69869;48.036;15.780;2024-02-15T13:57:42;2.78;;;0.80;;
80539;SDS011;69869;48.036;15.780;2024-02-15T14:00:09;1.30;;;0.90;;
80539;SDS011;69869;48.036;15.780;2024-02-15T14:02:47;0.95;;;0.80;;
80539;SDS011;69869;48.036;15.780;2024-02-15T14:05:16;0.80;;;0.80;;
80539;SDS011;69869;48.036;15.780;2024-02-15T14:07:48;0.50;;;0.50;;
80539;SDS011;69869;48.036;15.780;2024-02-15T14:10:15;0.90;;;0.90;;
80539;SDS011;69869;48.036;15.780;2024-02-15T14:12:44;1.98;;;0.80;;
80539;SDS011;69869;48.036;15.780;2024-02-15T14:15:10;0.70;;;0.70;;
80539;SDS011;69869;48.036;15.780;2024-02-15T14:17:37;1.77;;;0.90;;
80539;SDS011;69869;48.036;15.780;2024-02-15T14:20:03;0.70;;;0.70;;
80539;SDS011;69869;48.036;15.780;2024-02-15T14:22:33;0.70;;;0.70;;
80539;SDS011;69869;48.036;15.780;2024-02-15T14:24:59;0.60;;;0.60;;
80539;SDS011;69869;48.036;15.780;2024-02-15T14:27:25;0.70;;;0.70;;
80539;SDS011;69869;48.036;15.780;2024-02-15T14:29:52;0.73;;;0.70;;
80539;SDS011;69869;48.036;15.780;2024-02-15T14:32:36;0.80;;;0.80;;
80539;SDS011;69869;48.036;15.780;2024-02-15T14:35:20;1.35;;;0.80;;
80539;SDS011;69869;48.036;15.780;2024-02-15T14:37:46;1.02;;;0.93;;
80539;SDS011;69869;48.036;15.780;2024-02-15T14:40:12;1.70;;;0.70;;
80539;SDS011;69869;48.036;15.780;2024-02-15T14:42:41;1.13;;;0.80;;
80539;SDS011;69869;48.036;15.780;2024-02-15T14:45:11;0.60;;;0.60;;
80539;SDS011;69869;48.036;15.780;2024-02-15T14:47:37;0.80;;;0.80;;
80539;SDS011;69869;48.036;15.780;2024-02-15T14:50:03;0.70;;;0.68;;
80539;SDS011;69869;48.036;15.780;2024-02-15T14:52:33;0.80;;;0.80;;
80539;SDS011;69869;48.036;15.780;2024-02-15T14:55:02;0.77;;;0.70;;
80539;SDS011;69869;48.036;15.780;2024-02-15T14:57:32;0.80;;;0.80;;